createdAt,value
2019-05-17T00:01:53.996Z,124.60
2019-05-17T00:04:26.843Z,125.35
2019-05-17T00:06:56.999Z,120.47
2019-05-17T00:09:27.318Z,120.10
2019-05-17T00:11:57.657Z,117.30
2019-05-17T00:14:28.038Z,123.53
2019-05-17T00:16:58.410Z,118.10
2019-05-17T00:19:29.017Z,122.55
2019-05-17T00:21:59.442Z,115.88
2019-05-17T00:24:29.728Z,118.67
2019-05-17T00:26:59.986Z,111.25
2019-05-17T00:29:30.404Z,110.03
2019-05-17T00:32:00.696Z,112.37
2019-05-17T00:34:31.056Z,119.53
2019-05-17T00:37:01.403Z,112.88
2019-05-17T00:39:31.769Z,110.92
2019-05-17T00:42:02.043Z,112.80
2019-05-17T00:44:32.313Z,106.67
2019-05-17T00:47:02.629Z,113.95
2019-05-17T00:49:33.060Z,106.78
2019-05-17T00:52:03.409Z,105.07
2019-05-17T00:54:33.743Z,104.67
2019-05-17T00:57:04.572Z,106.72
2019-05-17T00:59:36.765Z,105.15
2019-05-17T01:02:07.151Z,104.43
2019-05-17T01:04:37.418Z,102.53
2019-05-17T01:07:07.742Z,101.25
2019-05-17T01:09:37.986Z,102.12
2019-05-17T01:12:08.314Z,104.05
2019-05-17T01:14:38.632Z,102.92
2019-05-17T01:17:08.956Z,99.45
2019-05-17T01:19:39.206Z,100.70
2019-05-17T01:22:09.569Z,101.62
2019-05-17T01:24:39.820Z,99.45
2019-05-17T01:27:10.186Z,96.92
2019-05-17T01:29:40.463Z,91.12
2019-05-17T01:32:10.644Z,95.67
2019-05-17T01:34:40.944Z,97.15
2019-05-17T01:37:11.324Z,98.47
2019-05-17T01:39:41.708Z,90.80
2019-05-17T01:42:12.081Z,92.05
2019-05-17T01:44:42.447Z,85.20
2019-05-17T01:47:12.861Z,90.77
2019-05-17T01:49:43.239Z,88.05
2019-05-17T01:52:13.510Z,83.95
2019-05-17T01:54:43.822Z,84.95
2019-05-17T01:57:16.655Z,85.30
2019-05-17T01:59:47.172Z,83.58
2019-05-17T02:02:21.356Z,83.22
2019-05-17T02:04:52.663Z,84.90
2019-05-17T02:07:22.985Z,85.40
2019-05-17T02:09:53.407Z,85.65
2019-05-17T02:12:23.648Z,80.67
2019-05-17T02:14:53.875Z,82.12
2019-05-17T02:17:26.454Z,76.70
2019-05-17T02:19:57.329Z,77.55
2019-05-17T02:22:27.743Z,78.97
2019-05-17T02:24:58.004Z,74.32
2019-05-17T02:27:34.157Z,73.87
2019-05-17T02:30:02.613Z,80.12
2019-05-17T02:32:33.659Z,76.87
2019-05-17T02:35:04.082Z,74.90
2019-05-17T02:37:34.363Z,72.08
2019-05-17T02:40:08.222Z,74.15
2019-05-17T02:42:37.258Z,70.85
2019-05-17T02:45:07.566Z,72.05
2019-05-17T02:47:37.840Z,71.35
2019-05-17T02:50:08.075Z,71.67
2019-05-17T02:52:38.313Z,66.82
2019-05-17T02:55:08.495Z,63.02
2019-05-17T02:57:38.848Z,57.70
2019-05-17T03:00:09.038Z,65.20
2019-05-17T03:02:42.817Z,61.50
2019-05-17T03:05:12.966Z,63.40
2019-05-17T03:07:44.307Z,66.80
2019-05-17T03:10:23.876Z,75.50
2019-05-17T03:12:47.632Z,95.22
2019-05-17T03:15:18.102Z,98.58
2019-05-17T03:17:48.345Z,101.70
2019-05-17T03:20:18.657Z,96.15
2019-05-17T03:22:48.948Z,97.50
2019-05-17T03:25:19.087Z,97.10
2019-05-17T03:27:49.423Z,104.32
2019-05-17T03:30:25.163Z,103.42
2019-05-17T03:32:56.414Z,108.42
2019-05-17T03:35:26.764Z,110.63
2019-05-17T03:37:56.601Z,105.40
2019-05-17T03:40:56.526Z,105.15
2019-05-17T03:42:58.904Z,116.35
2019-05-17T03:45:29.253Z,107.67
2019-05-17T03:48:03.781Z,107.95
2019-05-17T03:50:33.517Z,105.43
2019-05-17T03:53:05.046Z,101.87
2019-05-17T03:55:35.261Z,106.03
2019-05-17T03:58:05.622Z,102.38
2019-05-17T04:00:35.811Z,101.53
2019-05-17T04:03:06.091Z,105.30
2019-05-17T04:05:36.459Z,101.27
2019-05-17T04:08:06.666Z,102.32
2019-05-17T04:10:36.989Z,104.00
2019-05-17T04:13:13.197Z,102.15
2019-05-17T04:15:43.642Z,101.95
2019-05-17T04:18:13.956Z,100.72
2019-05-17T04:20:45.347Z,98.75
2019-05-17T04:23:15.567Z,101.95
2019-05-17T04:25:45.885Z,103.42
2019-05-17T04:28:16.219Z,98.05
2019-05-17T04:30:47.622Z,99.65
2019-05-17T04:33:17.899Z,98.10
2019-05-17T04:35:48.216Z,91.80
2019-05-17T04:38:18.647Z,90.72
2019-05-17T04:40:48.928Z,91.97
2019-05-17T04:43:22.869Z,97.05
2019-05-17T04:45:53.693Z,93.03
2019-05-17T04:48:23.440Z,94.72
2019-05-17T04:50:53.958Z,91.67
2019-05-17T04:53:24.267Z,92.30
2019-05-17T04:55:54.594Z,87.08
2019-05-17T04:58:24.837Z,85.60
2019-05-17T05:00:55.092Z,87.72
2019-05-17T05:03:25.852Z,91.50
2019-05-17T05:05:56.143Z,92.57
2019-05-17T05:08:26.406Z,89.47
2019-05-17T05:10:56.691Z,94.72
2019-05-17T05:13:26.869Z,92.00
2019-05-17T05:15:57.401Z,89.28
2019-05-17T05:18:27.519Z,90.92
2019-05-17T05:20:57.812Z,89.32
2019-05-17T05:23:28.066Z,85.05
2019-05-17T05:25:58.253Z,87.90
2019-05-17T05:28:28.466Z,88.82
2019-05-17T05:30:58.894Z,90.30
2019-05-17T05:33:29.216Z,84.10
2019-05-17T05:36:02.030Z,89.42
2019-05-17T05:38:32.125Z,87.92
2019-05-17T05:41:02.546Z,85.47
2019-05-17T05:43:32.930Z,85.60
2019-05-17T05:46:03.264Z,83.55
2019-05-17T05:48:33.445Z,82.25
2019-05-17T05:51:05.076Z,90.47
2019-05-17T05:53:36.107Z,84.15
2019-05-17T05:56:06.409Z,78.07
2019-05-17T05:58:37.728Z,81.55
2019-05-17T06:01:07.925Z,80.57
2019-05-17T06:03:38.607Z,85.47
2019-05-17T06:06:08.760Z,80.67
2019-05-17T06:08:41.368Z,77.92
2019-05-17T06:11:12.279Z,78.67
2019-05-17T06:13:42.697Z,77.45
2019-05-17T06:16:13.024Z,80.07
2019-05-17T06:18:43.226Z,75.05
2019-05-17T06:21:13.860Z,72.58
2019-05-17T06:23:44.089Z,71.77
2019-05-17T06:26:14.437Z,73.20
2019-05-17T06:28:44.703Z,71.65
2019-05-17T06:31:15.251Z,71.17
2019-05-17T06:33:45.576Z,74.20
2019-05-17T06:36:15.861Z,71.92
2019-05-17T06:38:46.273Z,72.42
2019-05-17T06:41:16.528Z,70.65
2019-05-17T06:43:46.789Z,66.95
2019-05-17T06:46:17.224Z,70.10
2019-05-17T06:48:47.503Z,68.50
2019-05-17T06:51:17.687Z,68.25
2019-05-17T06:53:47.959Z,65.87
2019-05-17T06:56:18.455Z,64.20
2019-05-17T06:58:49.800Z,66.37
2019-05-17T07:01:20.045Z,65.28
2019-05-17T07:03:50.278Z,66.07
2019-05-17T07:06:22.194Z,64.35
2019-05-17T07:08:52.487Z,61.95
2019-05-17T07:11:22.739Z,61.58
2019-05-17T07:13:52.991Z,59.00
2019-05-17T07:16:23.396Z,60.60
2019-05-17T07:18:54.571Z,58.98
2019-05-17T07:21:24.718Z,58.73
2019-05-17T07:23:55.043Z,59.40
2019-05-17T07:26:25.333Z,58.40
2019-05-17T07:28:55.596Z,55.80
2019-05-17T07:31:25.921Z,59.38
2019-05-17T07:33:56.130Z,57.05
2019-05-17T07:36:26.470Z,54.08
2019-05-17T07:38:56.707Z,53.42
2019-05-17T07:41:26.963Z,56.42
2019-05-17T07:43:57.335Z,55.70
2019-05-17T07:46:29.428Z,52.08
2019-05-17T07:52:02.151Z,52.17
2019-05-17T07:54:32.463Z,54.80
2019-05-17T07:57:02.746Z,53.13
2019-05-17T07:59:32.926Z,51.58
2019-05-17T08:02:03.218Z,51.05
2019-05-17T08:04:33.738Z,51.73
2019-05-17T08:07:03.859Z,50.15
2019-05-17T08:09:34.232Z,49.15
2019-05-17T08:12:04.560Z,48.98
2019-05-17T08:14:35.053Z,48.28
2019-05-17T08:17:05.369Z,49.20
2019-05-17T08:19:35.558Z,46.85
2019-05-17T08:22:05.853Z,46.77
2019-05-17T08:24:36.184Z,49.58
2019-05-17T08:27:06.499Z,46.73
2019-05-17T08:29:36.825Z,43.92
2019-05-17T08:32:09.501Z,49.83
2019-05-17T08:34:40.099Z,47.98
2019-05-17T08:37:10.578Z,46.10
2019-05-17T08:39:40.856Z,45.33
2019-05-17T08:42:11.069Z,46.50
2019-05-17T08:44:41.299Z,42.88
2019-05-17T08:47:11.617Z,42.38
2019-05-17T08:49:41.841Z,43.58
2019-05-17T08:52:12.097Z,43.23
2019-05-17T08:54:43.002Z,42.40
2019-05-17T08:57:13.368Z,45.58
2019-05-17T08:59:43.623Z,42.60
2019-05-17T09:02:13.887Z,41.25
2019-05-17T09:04:44.233Z,42.45
2019-05-17T09:07:14.564Z,39.95
2019-05-17T09:09:44.904Z,40.95
2019-05-17T09:12:15.278Z,40.88
2019-05-17T09:14:45.635Z,40.20
2019-05-17T09:17:15.926Z,41.05
2019-05-17T09:19:46.288Z,40.00
2019-05-17T09:22:16.529Z,39.00
2019-05-17T09:24:46.831Z,37.55
2019-05-17T09:27:19.600Z,37.35
2019-05-17T09:29:49.740Z,38.73
2019-05-17T09:32:20.353Z,38.45
2019-05-17T09:34:50.494Z,37.80
2019-05-17T09:37:22.521Z,37.03
2019-05-17T09:39:52.948Z,37.98
2019-05-17T09:42:23.275Z,34.78
2019-05-17T09:44:53.528Z,36.05
2019-05-17T09:47:23.773Z,34.60
2019-05-17T09:49:54.537Z,37.88
2019-05-17T09:52:24.710Z,39.08
2019-05-17T09:54:55.033Z,33.55
2019-05-17T09:57:25.353Z,35.30
2019-05-17T09:59:56.040Z,36.75
2019-05-17T10:02:27.643Z,36.20
2019-05-17T10:04:59.793Z,33.20
2019-05-17T10:07:30.765Z,33.45
2019-05-17T10:10:02.107Z,32.98
2019-05-17T10:12:32.773Z,33.85
2019-05-17T10:15:03.028Z,31.37
2019-05-17T10:17:33.492Z,33.08
2019-05-17T10:20:03.884Z,31.90
2019-05-17T10:22:34.486Z,32.58
2019-05-17T10:25:04.957Z,27.35
2019-05-17T10:27:35.345Z,30.68
2019-05-17T10:30:05.949Z,29.65
2019-05-17T10:32:36.368Z,28.85
2019-05-17T10:35:06.627Z,32.05
2019-05-17T10:37:36.955Z,37.70
2019-05-17T10:40:09.889Z,37.73
2019-05-17T10:42:39.879Z,45.43
2019-05-17T10:45:11.160Z,38.58
2019-05-17T10:47:41.483Z,45.50
2019-05-17T10:50:11.995Z,41.35
2019-05-17T10:52:42.320Z,43.10
2019-05-17T10:55:12.713Z,44.13
2019-05-17T10:57:42.955Z,41.45
2019-05-17T11:00:13.288Z,44.93
2019-05-17T11:02:43.920Z,43.55
2019-05-17T11:05:14.245Z,40.20
2019-05-17T11:07:44.640Z,40.45
2019-05-17T11:10:15.237Z,41.23
2019-05-17T11:12:45.555Z,40.48
2019-05-17T11:15:16.091Z,41.40
2019-05-17T11:17:46.418Z,40.35
2019-05-17T11:20:17.451Z,38.23
2019-05-17T11:22:47.785Z,42.83
2019-05-17T11:25:18.024Z,39.33
2019-05-17T11:27:48.270Z,43.45
2019-05-17T11:30:18.555Z,38.95
2019-05-17T11:32:48.851Z,39.03
2019-05-17T11:35:19.261Z,41.20
2019-05-17T11:37:49.459Z,39.42
2019-05-17T11:40:19.719Z,39.18
2019-05-17T11:42:50.037Z,38.65
2019-05-17T11:45:27.585Z,38.38
2019-05-17T11:47:53.687Z,38.23
2019-05-17T11:50:25.034Z,37.40
2019-05-17T11:52:55.364Z,36.20
2019-05-17T11:55:25.490Z,39.55
2019-05-17T11:57:55.737Z,35.50
2019-05-17T12:00:25.964Z,38.13
2019-05-17T12:02:56.127Z,36.73
2019-05-17T12:05:26.468Z,34.65
2019-05-17T12:07:56.898Z,35.68
2019-05-17T12:10:27.286Z,36.25
2019-05-17T12:12:57.707Z,34.75
2019-05-17T12:15:43.571Z,67.30
2019-05-17T12:17:59.755Z,75.67
2019-05-17T12:20:30.022Z,90.22
2019-05-17T12:23:00.305Z,100.27
2019-05-17T12:25:30.475Z,59.77
2019-05-17T12:28:01.011Z,29.20
2019-05-17T12:30:31.453Z,23.30
2019-05-17T12:33:01.752Z,22.50
2019-05-17T12:35:32.092Z,15.75
2019-05-17T12:38:02.486Z,16.55
2019-05-17T12:40:32.745Z,18.70
2019-05-17T12:43:04.028Z,16.90
2019-05-17T12:45:34.241Z,11.50
2019-05-17T12:48:04.436Z,9.70
2019-05-17T12:50:34.759Z,12.28
2019-05-17T12:53:05.119Z,16.35
2019-05-17T12:55:35.342Z,17.45
2019-05-17T12:58:05.698Z,28.70
2019-05-17T13:00:35.977Z,23.05
2019-05-17T13:03:06.393Z,16.55
2019-05-17T13:05:36.684Z,14.95
2019-05-17T13:08:07.024Z,12.03
2019-05-17T13:10:37.348Z,11.33
2019-05-17T13:13:09.510Z,9.33
2019-05-17T13:15:39.662Z,12.90
2019-05-17T13:18:10.049Z,11.33
2019-05-17T13:20:40.353Z,9.60
2019-05-17T13:23:10.819Z,12.53
2019-05-17T13:25:42.229Z,21.48
2019-05-17T13:28:12.594Z,16.70
2019-05-17T13:30:43.637Z,15.98
2019-05-17T13:33:14.044Z,50.88
2019-05-17T13:35:44.432Z,50.00
2019-05-17T13:38:14.776Z,35.15
2019-05-17T13:40:45.129Z,36.77
2019-05-17T13:43:15.407Z,38.33
2019-05-17T13:45:45.720Z,35.90
2019-05-17T13:48:16.211Z,33.70
2019-05-17T13:50:46.601Z,30.55
2019-05-17T13:53:17.265Z,23.30
2019-05-17T13:55:47.551Z,24.75
2019-05-17T13:58:17.807Z,22.70
2019-05-17T14:00:48.092Z,24.85
2019-05-17T14:03:18.520Z,23.62
2019-05-17T14:05:48.914Z,32.53
2019-05-17T14:08:19.166Z,28.75
2019-05-17T14:10:49.427Z,33.05
2019-05-17T14:13:19.710Z,31.90
2019-05-17T14:15:50.097Z,30.45
2019-05-17T14:18:20.471Z,29.20
2019-05-17T14:20:51.683Z,28.83
2019-05-17T14:23:21.903Z,29.63
2019-05-17T14:25:52.154Z,27.62
2019-05-17T14:28:22.307Z,26.02
2019-05-17T14:30:52.627Z,28.07
2019-05-17T14:33:22.879Z,26.90
2019-05-17T14:35:53.137Z,27.73
2019-05-17T14:38:23.313Z,25.48
2019-05-17T14:41:06.553Z,26.17
2019-05-17T14:43:25.541Z,27.27
2019-05-17T14:45:55.797Z,22.93
2019-05-17T14:48:26.130Z,24.10
2019-05-17T14:50:56.406Z,23.85
2019-05-17T14:53:26.584Z,23.30
2019-05-17T14:55:56.859Z,22.67
2019-05-17T14:58:27.267Z,21.35
2019-05-17T15:00:57.519Z,20.55
2019-05-17T15:03:27.901Z,20.48
2019-05-17T15:05:58.216Z,21.02
2019-05-17T15:08:29.495Z,22.27
2019-05-17T15:10:59.667Z,20.70
2019-05-17T15:13:30.958Z,20.40
2019-05-17T15:16:01.220Z,18.95
2019-05-17T15:18:31.498Z,19.82
2019-05-17T15:21:03.339Z,20.43
2019-05-17T15:23:33.576Z,18.57
2019-05-17T15:26:03.858Z,23.07
2019-05-17T15:28:34.136Z,24.65
2019-05-17T15:31:04.282Z,22.75
2019-05-17T15:33:34.579Z,22.25
2019-05-17T15:36:06.047Z,21.85
2019-05-17T15:38:36.386Z,21.17
2019-05-17T15:41:06.591Z,21.65
2019-05-17T15:43:36.946Z,23.95
2019-05-17T15:46:07.217Z,21.93
2019-05-17T15:48:37.437Z,24.98
2019-05-17T15:51:07.608Z,22.62
2019-05-17T15:53:37.973Z,22.65
2019-05-17T15:56:08.251Z,21.75
2019-05-17T15:58:38.534Z,21.27
2019-05-17T16:01:09.371Z,21.80
2019-05-17T16:03:39.709Z,21.52
2019-05-17T16:06:10.016Z,21.52
2019-05-17T16:08:40.318Z,22.77
2019-05-17T16:11:10.604Z,22.20
2019-05-17T16:13:40.897Z,23.55
2019-05-17T16:16:11.159Z,21.85
2019-05-17T16:18:41.473Z,23.07
2019-05-17T16:21:11.635Z,22.80
2019-05-17T16:23:42.128Z,24.05
2019-05-17T16:26:12.416Z,25.75
2019-05-17T16:28:42.679Z,22.48
2019-05-17T16:31:12.970Z,20.80
2019-05-17T16:33:43.470Z,21.87
2019-05-17T16:36:13.836Z,22.73
2019-05-17T16:38:44.263Z,25.95
2019-05-17T16:41:14.605Z,21.23
2019-05-17T16:43:44.890Z,21.12
2019-05-17T16:46:15.185Z,22.40
2019-05-17T16:48:45.418Z,23.22
2019-05-17T16:51:15.702Z,24.92
2019-05-17T16:53:45.953Z,23.38
2019-05-17T16:56:16.216Z,22.35
2019-05-17T16:58:46.503Z,23.22
2019-05-17T17:01:16.733Z,20.45
2019-05-17T17:03:47.011Z,21.93
2019-05-17T17:06:17.298Z,21.48
2019-05-17T17:08:47.555Z,21.52
2019-05-17T17:11:17.887Z,22.60
2019-05-17T17:13:48.284Z,22.27
2019-05-17T17:16:18.695Z,21.65
2019-05-17T17:18:48.961Z,21.17
2019-05-17T17:21:20.269Z,23.07
2019-05-17T17:23:50.774Z,21.62
2019-05-17T17:26:20.947Z,26.15
2019-05-17T17:28:51.293Z,22.15
2019-05-17T17:31:21.572Z,20.65
2019-05-17T17:33:51.938Z,22.37
2019-05-17T17:36:22.246Z,24.18
2019-05-17T17:38:52.472Z,20.05
2019-05-17T17:41:26.290Z,23.18
2019-05-17T17:43:58.687Z,23.02
2019-05-17T17:46:27.144Z,25.97
2019-05-17T17:48:57.564Z,21.57
2019-05-17T17:51:27.901Z,22.13
2019-05-17T17:53:58.306Z,21.57
2019-05-17T17:56:28.626Z,23.52
2019-05-17T17:58:58.754Z,20.72
2019-05-17T18:01:29.303Z,24.25
2019-05-17T18:03:59.696Z,23.32
2019-05-17T18:06:29.866Z,25.48
2019-05-17T18:09:00.177Z,23.87
2019-05-17T18:11:30.400Z,25.23
2019-05-17T18:14:12.382Z,21.97
2019-05-17T18:16:32.561Z,22.93
2019-05-17T18:19:02.680Z,25.00
2019-05-17T18:21:32.961Z,22.85
2019-05-17T18:24:03.262Z,24.87
2019-05-17T18:26:33.557Z,20.92
2019-05-17T18:29:07.653Z,21.95
2019-05-17T18:31:35.967Z,22.45
2019-05-17T18:34:06.330Z,24.60
2019-05-17T18:36:38.475Z,19.42
2019-05-17T18:39:08.747Z,20.50
2019-05-17T18:41:40.626Z,22.87
2019-05-17T18:44:10.962Z,23.85
2019-05-17T18:46:41.225Z,30.90
2019-05-17T18:49:11.601Z,30.27
2019-05-17T18:51:42.161Z,32.28
2019-05-17T18:54:12.367Z,32.30
2019-05-17T18:56:42.712Z,35.08
2019-05-17T18:59:13.599Z,37.53
2019-05-17T19:01:43.903Z,41.35
2019-05-17T19:04:14.179Z,38.17
2019-05-17T19:06:44.473Z,40.05
2019-05-17T19:09:14.736Z,53.05
2019-05-17T19:11:45.026Z,52.17
2019-05-17T19:14:15.344Z,66.05
2019-05-17T19:16:45.656Z,70.65
2019-05-17T19:19:15.859Z,68.85
2019-05-17T19:21:46.687Z,66.67
2019-05-17T19:24:16.977Z,72.00
2019-05-17T19:26:47.307Z,66.10
2019-05-17T19:29:17.456Z,56.30
2019-05-17T19:31:47.793Z,52.35
2019-05-17T19:34:18.172Z,79.92
2019-05-17T19:36:48.460Z,44.45
2019-05-17T19:39:20.145Z,44.42
2019-05-17T19:41:50.464Z,50.17
2019-05-17T19:44:21.725Z,54.27
2019-05-17T19:46:52.049Z,50.03
2019-05-17T19:49:22.467Z,46.80
2019-05-17T19:51:52.828Z,48.55
2019-05-17T19:54:23.380Z,47.30
2019-05-17T19:56:53.703Z,45.43
2019-05-17T19:59:24.934Z,46.00
2019-05-17T20:01:55.184Z,43.10
2019-05-17T20:04:25.561Z,42.65
2019-05-17T20:06:55.871Z,43.42
2019-05-17T20:09:26.189Z,42.27
2019-05-17T20:11:56.497Z,41.42
2019-05-17T20:14:26.767Z,41.85
2019-05-17T20:16:57.036Z,41.70
2019-05-17T20:19:27.338Z,41.37
2019-05-17T20:21:57.672Z,44.45
2019-05-17T20:24:27.925Z,42.53
2019-05-17T20:26:58.395Z,46.18
2019-05-17T20:29:28.687Z,45.92
2019-05-17T20:31:59.161Z,49.42
2019-05-17T20:34:29.470Z,48.15
2019-05-17T20:36:59.774Z,50.48
2019-05-17T20:39:29.998Z,51.92
2019-05-17T20:42:00.308Z,54.03
2019-05-17T20:44:30.545Z,53.50
2019-05-17T20:47:00.845Z,53.98
2019-05-17T20:49:31.310Z,53.60
2019-05-17T20:52:01.544Z,55.08
2019-05-17T20:54:31.799Z,56.83
2019-05-17T20:57:02.201Z,56.30
2019-05-17T20:59:32.480Z,64.72
2019-05-17T21:02:03.000Z,71.33
2019-05-17T21:04:33.282Z,86.45
2019-05-17T21:07:03.653Z,90.38
2019-05-17T21:09:33.927Z,90.45
2019-05-17T21:12:04.491Z,87.55
2019-05-17T21:14:34.880Z,86.90
2019-05-17T21:17:05.076Z,107.95
2019-05-17T21:19:35.294Z,85.45
2019-05-17T21:22:05.704Z,84.40
2019-05-17T21:24:35.864Z,84.70
2019-05-17T21:27:06.529Z,82.80
2019-05-17T21:29:36.708Z,88.75
2019-05-17T21:32:06.993Z,84.35
2019-05-17T21:34:37.253Z,84.25
2019-05-17T21:37:07.600Z,84.50
2019-05-17T21:39:37.732Z,83.52
2019-05-17T21:42:08.152Z,79.75
2019-05-17T21:44:38.473Z,82.70
2019-05-17T21:47:08.757Z,78.28
2019-05-17T21:49:39.109Z,84.50
2019-05-17T21:52:09.409Z,83.05
2019-05-17T21:54:39.685Z,91.10
2019-05-17T21:57:09.984Z,79.53
2019-05-17T21:59:40.307Z,79.32
2019-05-17T22:02:10.624Z,82.92
2019-05-17T22:04:40.923Z,84.87
2019-05-17T22:07:11.296Z,80.97
2019-05-17T22:09:41.557Z,80.83
2019-05-17T22:12:13.339Z,83.65
2019-05-17T22:14:44.569Z,84.87
2019-05-17T22:17:14.888Z,81.67
2019-05-17T22:19:45.234Z,84.97
2019-05-17T22:22:15.496Z,87.35
2019-05-17T22:24:45.747Z,80.03
2019-05-17T22:27:16.167Z,78.62
2019-05-17T22:29:46.461Z,83.33
2019-05-17T22:32:16.748Z,83.75
2019-05-17T22:34:47.004Z,84.83
2019-05-17T22:37:17.747Z,76.72
2019-05-17T22:39:48.027Z,80.85
2019-05-17T22:42:18.878Z,81.00
2019-05-17T22:44:49.318Z,81.17
2019-05-17T22:47:19.779Z,80.97
2019-05-17T22:49:50.040Z,78.47
2019-05-17T22:52:20.315Z,79.87
2019-05-17T22:54:50.576Z,82.50
2019-05-17T22:57:20.792Z,82.65
2019-05-17T22:59:52.096Z,83.35
2019-05-17T23:02:22.334Z,79.55
2019-05-17T23:04:52.651Z,81.25
2019-05-17T23:07:22.949Z,82.20
2019-05-17T23:09:53.143Z,82.17
2019-05-17T23:12:24.259Z,78.92
2019-05-17T23:14:54.553Z,78.75
2019-05-17T23:17:24.808Z,78.25
2019-05-17T23:19:55.027Z,81.53
2019-05-17T23:22:25.360Z,80.97
2019-05-17T23:24:55.602Z,77.80
2019-05-17T23:27:25.855Z,76.55
2019-05-17T23:29:56.214Z,77.37
2019-05-17T23:32:26.516Z,74.62
2019-05-17T23:34:56.840Z,77.95
2019-05-17T23:37:26.989Z,77.55
2019-05-17T23:39:57.307Z,74.85
2019-05-17T23:42:27.587Z,77.82
2019-05-17T23:44:57.855Z,77.42
2019-05-17T23:47:28.055Z,77.53
2019-05-17T23:49:58.336Z,77.53
2019-05-17T23:52:28.579Z,76.70
2019-05-17T23:54:58.796Z,76.33
2019-05-17T23:57:29.075Z,76.28
2019-05-17T23:59:59.512Z,74.47
